sensor_id;sensor_type;location;lat;lon;timestamp;temperature;humidity
2623;DHT22;1321;48.690;9.022;2022-09-29T00:01:06;9.80;99.90
2623;DHT22;1321;48.690;9.022;2022-09-29T00:03:36;9.60;1.00
2623;DHT22;1321;48.690;9.022;2022-09-29T00:06:11;9.60;1.00
2623;DHT22;1321;48.690;9.022;2022-09-29T00:08:39;9.60;99.90
2623;DHT22;1321;48.690;9.022;2022-09-29T00:11:08;9.60;1.00
2623;DHT22;1321;48.690;9.022;2022-09-29T00:13:36;9.60;99.90
2623;DHT22;1321;48.690;9.022;2022-09-29T00:16:05;9.50;99.90
2623;DHT22;1321;48.690;9.022;2022-09-29T00:18:34;9.40;1.00
2623;DHT22;1321;48.690;9.022;2022-09-29T00:21:05;9.50;99.90
2623;DHT22;1321;48.690;9.022;2022-09-29T00:23:35;9.50;34.40
2623;DHT22;1321;48.690;9.022;2022-09-29T00:26:06;9.60;99.90
2623;DHT22;1321;48.690;9.022;2022-09-29T00:28:36;9.60;99.90
2623;DHT22;1321;48.690;9.022;2022-09-29T00:31:06;9.50;99.90
2623;DHT22;1321;48.690;9.022;2022-09-29T00:33:36;9.60;1.00
2623;DHT22;1321;48.690;9.022;2022-09-29T00:36:09;9.50;99.90
2623;DHT22;1321;48.690;9.022;2022-09-29T00:38:39;9.50;99.90
2623;DHT22;1321;48.690;9.022;2022-09-29T00:41:12;9.40;1.00
2623;DHT22;1321;48.690;9.022;2022-09-29T00:43:49;9.40;99.90
2623;DHT22;1321;48.690;9.022;2022-09-29T00:46:19;9.50;99.90
2623;DHT22;1321;48.690;9.022;2022-09-29T00:48:50;9.50;95.90
2623;DHT22;1321;48.690;9.022;2022-09-29T00:51:20;9.50;99.90
2623;DHT22;1321;48.690;9.022;2022-09-29T00:53:48;9.50;1.00
2623;DHT22;1321;48.690;9.022;2022-09-29T00:56:18;9.50;99.90
2623;DHT22;1321;48.690;9.022;2022-09-29T00:58:50;9.60;1.00
2623;DHT22;1321;48.690;9.022;2022-09-29T01:01:21;9.60;1.00
2623;DHT22;1321;48.690;9.022;2022-09-29T01:03:54;9.50;1.00
2623;DHT22;1321;48.690;9.022;2022-09-29T01:06:28;9.50;84.30
2623;DHT22;1321;48.690;9.022;2022-09-29T01:09:00;9.70;1.00
2623;DHT22;1321;48.690;9.022;2022-09-29T01:11:29;9.60;30.40
2623;DHT22;1321;48.690;9.022;2022-09-29T01:13:59;9.60;99.90
2623;DHT22;1321;48.690;9.022;2022-09-29T01:16:29;9.70;99.90
2623;DHT22;1321;48.690;9.022;2022-09-29T01:18:59;9.80;99.90
2623;DHT22;1321;48.690;9.022;2022-09-29T01:21:35;9.80;99.90
2623;DHT22;1321;48.690;9.022;2022-09-29T01:24:32;9.90;22.00
2623;DHT22;1321;48.690;9.022;2022-09-29T01:27:21;10.00;23.20
2623;DHT22;1321;48.690;9.022;2022-09-29T01:30:14;9.90;1.00
2623;DHT22;1321;48.690;9.022;2022-09-29T01:32:56;9.90;1.00
2623;DHT22;1321;48.690;9.022;2022-09-29T01:35:36;9.90;1.00
2623;DHT22;1321;48.690;9.022;2022-09-29T01:38:17;9.90;99.90
2623;DHT22;1321;48.690;9.022;2022-09-29T01:40:52;9.80;1.00
2623;DHT22;1321;48.690;9.022;2022-09-29T01:43:26;9.80;29.50
2623;DHT22;1321;48.690;9.022;2022-09-29T01:45:59;9.80;1.00
2623;DHT22;1321;48.690;9.022;2022-09-29T01:48:33;9.80;6.10
2623;DHT22;1321;48.690;9.022;2022-09-29T01:51:07;9.90;1.00
2623;DHT22;1321;48.690;9.022;2022-09-29T01:53:39;9.80;1.00
2623;DHT22;1321;48.690;9.022;2022-09-29T01:56:14;9.80;1.00
2623;DHT22;1321;48.690;9.022;2022-09-29T01:58:48;9.80;99.90
2623;DHT22;1321;48.690;9.022;2022-09-29T02:01:20;9.90;99.90
2623;DHT22;1321;48.690;9.022;2022-09-29T02:03:53;9.80;1.00
2623;DHT22;1321;48.690;9.022;2022-09-29T02:06:26;9.70;99.90
2623;DHT22;1321;48.690;9.022;2022-09-29T02:08:58;9.80;99.90
2623;DHT22;1321;48.690;9.022;2022-09-29T02:11:31;9.80;99.90
2623;DHT22;1321;48.690;9.022;2022-09-29T02:14:05;9.80;1.00
2623;DHT22;1321;48.690;9.022;2022-09-29T02:16:39;9.90;99.90
2623;DHT22;1321;48.690;9.022;2022-09-29T02:19:14;9.90;99.90
2623;DHT22;1321;48.690;9.022;2022-09-29T02:21:43;9.80;99.90
2623;DHT22;1321;48.690;9.022;2022-09-29T02:24:11;9.80;99.90
2623;DHT22;1321;48.690;9.022;2022-09-29T02:26:40;9.80;99.90
2623;DHT22;1321;48.690;9.022;2022-09-29T02:29:10;9.80;1.00
2623;DHT22;1321;48.690;9.022;2022-09-29T02:31:39;9.80;34.10
2623;DHT22;1321;48.690;9.022;2022-09-29T02:34:11;9.70;99.90
2623;DHT22;1321;48.690;9.022;2022-09-29T02:36:48;9.60;1.00
2623;DHT22;1321;48.690;9.022;2022-09-29T02:39:30;9.60;1.00
2623;DHT22;1321;48.690;9.022;2022-09-29T02:42:09;9.60;99.90
2623;DHT22;1321;48.690;9.022;2022-09-29T02:44:53;9.60;1.00
2623;DHT22;1321;48.690;9.022;2022-09-29T02:47:34;9.50;1.00
2623;DHT22;1321;48.690;9.022;2022-09-29T02:50:19;9.50;99.90
2623;DHT22;1321;48.690;9.022;2022-09-29T02:52:55;9.50;1.00
2623;DHT22;1321;48.690;9.022;2022-09-29T02:55:34;9.70;1.00
2623;DHT22;1321;48.690;9.022;2022-09-29T02:58:11;9.60;1.00
2623;DHT22;1321;48.690;9.022;2022-09-29T03:00:41;9.60;99.90
2623;DHT22;1321;48.690;9.022;2022-09-29T03:03:09;9.50;99.90
2623;DHT22;1321;48.690;9.022;2022-09-29T03:05:39;9.60;99.90
2623;DHT22;1321;48.690;9.022;2022-09-29T03:08:07;9.60;99.90
2623;DHT22;1321;48.690;9.022;2022-09-29T03:10:36;9.60;1.00
2623;DHT22;1321;48.690;9.022;2022-09-29T03:13:04;9.50;1.00
2623;DHT22;1321;48.690;9.022;2022-09-29T03:15:32;9.50;1.00
2623;DHT22;1321;48.690;9.022;2022-09-29T03:18:00;9.50;1.00
2623;DHT22;1321;48.690;9.022;2022-09-29T03:20:35;9.50;1.00
2623;DHT22;1321;48.690;9.022;2022-09-29T03:23:05;9.50;1.00
2623;DHT22;1321;48.690;9.022;2022-09-29T03:25:33;9.60;1.00
2623;DHT22;1321;48.690;9.022;2022-09-29T03:28:01;9.60;1.00
2623;DHT22;1321;48.690;9.022;2022-09-29T03:30:30;9.50;1.00
2623;DHT22;1321;48.690;9.022;2022-09-29T03:32:58;9.50;1.00
2623;DHT22;1321;48.690;9.022;2022-09-29T03:35:26;9.50;1.00
2623;DHT22;1321;48.690;9.022;2022-09-29T03:37:57;9.50;30.70
2623;DHT22;1321;48.690;9.022;2022-09-29T03:40:27;9.40;99.90
2623;DHT22;1321;48.690;9.022;2022-09-29T03:42:55;9.40;42.50
2623;DHT22;1321;48.690;9.022;2022-09-29T03:45:23;9.40;1.00
2623;DHT22;1321;48.690;9.022;2022-09-29T03:47:52;9.50;1.00
2623;DHT22;1321;48.690;9.022;2022-09-29T03:50:20;9.40;1.00
2623;DHT22;1321;48.690;9.022;2022-09-29T03:52:48;9.30;1.00
2623;DHT22;1321;48.690;9.022;2022-09-29T03:55:16;9.20;1.00
2623;DHT22;1321;48.690;9.022;2022-09-29T03:57:46;9.20;1.00
2623;DHT22;1321;48.690;9.022;2022-09-29T04:00:14;9.10;99.90
2623;DHT22;1321;48.690;9.022;2022-09-29T04:02:43;9.00;1.00
2623;DHT22;1321;48.690;9.022;2022-09-29T04:05:11;9.10;1.00
2623;DHT22;1321;48.690;9.022;2022-09-29T04:07:39;9.00;1.00
2623;DHT22;1321;48.690;9.022;2022-09-29T04:10:08;8.90;1.00
2623;DHT22;1321;48.690;9.022;2022-09-29T04:12:36;8.80;1.00
2623;DHT22;1321;48.690;9.022;2022-09-29T04:15:07;8.80;1.00
2623;DHT22;1321;48.690;9.022;2022-09-29T04:17:36;8.80;99.90
2623;DHT22;1321;48.690;9.022;2022-09-29T04:20:04;8.80;99.90
2623;DHT22;1321;48.690;9.022;2022-09-29T04:22:33;8.70;1.00
2623;DHT22;1321;48.690;9.022;2022-09-29T04:25:02;8.70;1.00
2623;DHT22;1321;48.690;9.022;2022-09-29T04:27:30;8.70;99.90
2623;DHT22;1321;48.690;9.022;2022-09-29T04:29:58;8.70;99.90
2623;DHT22;1321;48.690;9.022;2022-09-29T04:32:28;8.60;99.90
2623;DHT22;1321;48.690;9.022;2022-09-29T04:34:57;8.60;1.00
2623;DHT22;1321;48.690;9.022;2022-09-29T04:37:25;8.60;1.00
2623;DHT22;1321;48.690;9.022;2022-09-29T04:39:54;8.60;1.00
2623;DHT22;1321;48.690;9.022;2022-09-29T04:42:22;8.60;99.90
2623;DHT22;1321;48.690;9.022;2022-09-29T04:44:50;8.60;99.90
2623;DHT22;1321;48.690;9.022;2022-09-29T04:47:19;8.60;99.90
2623;DHT22;1321;48.690;9.022;2022-09-29T04:49:48;8.50;1.00
2623;DHT22;1321;48.690;9.022;2022-09-29T04:52:17;8.50;99.90
2623;DHT22;1321;48.690;9.022;2022-09-29T04:54:45;8.50;1.00
2623;DHT22;1321;48.690;9.022;2022-09-29T04:57:13;8.60;49.30
2623;DHT22;1321;48.690;9.022;2022-09-29T04:59:41;8.60;67.60
2623;DHT22;1321;48.690;9.022;2022-09-29T05:02:10;8.60;99.90
2623;DHT22;1321;48.690;9.022;2022-09-29T05:04:38;8.60;24.30
2623;DHT22;1321;48.690;9.022;2022-09-29T05:07:08;8.50;1.00
2623;DHT22;1321;48.690;9.022;2022-09-29T05:09:36;8.50;32.40
2623;DHT22;1321;48.690;9.022;2022-09-29T05:12:05;8.60;1.00
2623;DHT22;1321;48.690;9.022;2022-09-29T05:14:33;8.60;1.00
2623;DHT22;1321;48.690;9.022;2022-09-29T05:17:02;8.50;1.00
2623;DHT22;1321;48.690;9.022;2022-09-29T05:19:30;8.50;1.00
2623;DHT22;1321;48.690;9.022;2022-09-29T05:21:59;8.50;1.00
2623;DHT22;1321;48.690;9.022;2022-09-29T05:24:28;8.60;99.90
2623;DHT22;1321;48.690;9.022;2022-09-29T05:26:57;8.60;22.20
2623;DHT22;1321;48.690;9.022;2022-09-29T05:29:25;8.60;95.00
2623;DHT22;1321;48.690;9.022;2022-09-29T05:31:54;8.70;99.90
2623;DHT22;1321;48.690;9.022;2022-09-29T05:34:22;8.70;29.70
2623;DHT22;1321;48.690;9.022;2022-09-29T05:36:50;8.60;94.50
2623;DHT22;1321;48.690;9.022;2022-09-29T05:39:19;8.70;99.90
2623;DHT22;1321;48.690;9.022;2022-09-29T05:41:49;8.70;99.90
2623;DHT22;1321;48.690;9.022;2022-09-29T05:44:17;8.60;1.00
2623;DHT22;1321;48.690;9.022;2022-09-29T05:46:46;8.50;99.90
2623;DHT22;1321;48.690;9.022;2022-09-29T05:49:14;8.50;99.90
2623;DHT22;1321;48.690;9.022;2022-09-29T05:51:45;8.50;91.50
2623;DHT22;1321;48.690;9.022;2022-09-29T05:54:13;8.40;99.90
2623;DHT22;1321;48.690;9.022;2022-09-29T05:56:41;8.50;82.30
2623;DHT22;1321;48.690;9.022;2022-09-29T05:59:12;8.50;99.90
2623;DHT22;1321;48.690;9.022;2022-09-29T06:01:41;8.50;1.00
2623;DHT22;1321;48.690;9.022;2022-09-29T06:04:10;8.60;1.00
2623;DHT22;1321;48.690;9.022;2022-09-29T06:06:38;8.60;1.00
2623;DHT22;1321;48.690;9.022;2022-09-29T06:09:07;8.50;1.00
2623;DHT22;1321;48.690;9.022;2022-09-29T06:11:35;8.60;1.00
2623;DHT22;1321;48.690;9.022;2022-09-29T06:14:03;8.60;27.00
2623;DHT22;1321;48.690;9.022;2022-09-29T06:16:33;8.70;21.30
2623;DHT22;1321;48.690;9.022;2022-09-29T06:19:03;8.80;99.90
2623;DHT22;1321;48.690;9.022;2022-09-29T06:21:32;8.80;99.90
2623;DHT22;1321;48.690;9.022;2022-09-29T06:24:01;8.80;99.90
2623;DHT22;1321;48.690;9.022;2022-09-29T06:26:29;8.80;99.90
2623;DHT22;1321;48.690;9.022;2022-09-29T06:28:58;9.00;99.90
2623;DHT22;1321;48.690;9.022;2022-09-29T06:31:28;8.90;99.90
2623;DHT22;1321;48.690;9.022;2022-09-29T06:33:59;8.90;99.90
2623;DHT22;1321;48.690;9.022;2022-09-29T06:36:30;9.10;99.90
2623;DHT22;1321;48.690;9.022;2022-09-29T06:39:16;9.10;46.30
2623;DHT22;1321;48.690;9.022;2022-09-29T06:41:45;9.10;1.00
2623;DHT22;1321;48.690;9.022;2022-09-29T06:44:18;9.10;99.90
2623;DHT22;1321;48.690;9.022;2022-09-29T06:46:46;9.10;99.90
2623;DHT22;1321;48.690;9.022;2022-09-29T06:49:16;9.20;99.90
2623;DHT22;1321;48.690;9.022;2022-09-29T06:51:45;9.20;99.90
2623;DHT22;1321;48.690;9.022;2022-09-29T06:54:14;9.30;99.60
2623;DHT22;1321;48.690;9.022;2022-09-29T06:56:46;9.40;1.00
2623;DHT22;1321;48.690;9.022;2022-09-29T06:59:14;9.50;1.00
2623;DHT22;1321;48.690;9.022;2022-09-29T07:01:43;9.60;1.00
2623;DHT22;1321;48.690;9.022;2022-09-29T07:04:19;9.50;1.00
2623;DHT22;1321;48.690;9.022;2022-09-29T07:06:49;9.60;99.90
2623;DHT22;1321;48.690;9.022;2022-09-29T07:09:18;9.70;1.00
2623;DHT22;1321;48.690;9.022;2022-09-29T07:11:49;9.70;99.90
2623;DHT22;1321;48.690;9.022;2022-09-29T07:14:19;9.70;39.10
2623;DHT22;1321;48.690;9.022;2022-09-29T07:16:48;9.80;30.80
2623;DHT22;1321;48.690;9.022;2022-09-29T07:19:18;9.90;99.90
2623;DHT22;1321;48.690;9.022;2022-09-29T07:21:48;9.90;99.90
2623;DHT22;1321;48.690;9.022;2022-09-29T07:24:17;9.70;1.00
2623;DHT22;1321;48.690;9.022;2022-09-29T07:26:45;9.70;1.00
2623;DHT22;1321;48.690;9.022;2022-09-29T07:29:13;9.60;99.90
2623;DHT22;1321;48.690;9.022;2022-09-29T07:31:42;9.60;1.00
2623;DHT22;1321;48.690;9.022;2022-09-29T07:34:19;9.70;1.00
2623;DHT22;1321;48.690;9.022;2022-09-29T07:36:48;9.80;1.00
2623;DHT22;1321;48.690;9.022;2022-09-29T07:39:18;9.70;1.00
2623;DHT22;1321;48.690;9.022;2022-09-29T07:41:47;9.70;1.00
2623;DHT22;1321;48.690;9.022;2022-09-29T07:44:15;9.70;99.90
2623;DHT22;1321;48.690;9.022;2022-09-29T07:46:44;9.80;89.10
2623;DHT22;1321;48.690;9.022;2022-09-29T07:49:12;9.90;1.00
2623;DHT22;1321;48.690;9.022;2022-09-29T07:51:41;9.90;55.80
2623;DHT22;1321;48.690;9.022;2022-09-29T07:54:10;10.10;1.00
2623;DHT22;1321;48.690;9.022;2022-09-29T07:56:38;10.10;1.00
2623;DHT22;1321;48.690;9.022;2022-09-29T07:59:08;10.30;1.00
2623;DHT22;1321;48.690;9.022;2022-09-29T08:01:36;10.30;1.00
2623;DHT22;1321;48.690;9.022;2022-09-29T08:04:05;10.40;99.90
2623;DHT22;1321;48.690;9.022;2022-09-29T08:06:34;10.60;99.90
2623;DHT22;1321;48.690;9.022;2022-09-29T08:09:04;10.60;23.40
2623;DHT22;1321;48.690;9.022;2022-09-29T08:11:35;10.60;1.00
2623;DHT22;1321;48.690;9.022;2022-09-29T08:14:04;10.60;99.90
2623;DHT22;1321;48.690;9.022;2022-09-29T08:16:32;10.60;1.00
2623;DHT22;1321;48.690;9.022;2022-09-29T08:19:02;10.60;99.90
2623;DHT22;1321;48.690;9.022;2022-09-29T08:21:31;10.60;1.00
2623;DHT22;1321;48.690;9.022;2022-09-29T08:24:04;10.80;99.90
2623;DHT22;1321;48.690;9.022;2022-09-29T08:26:35;10.90;1.00
2623;DHT22;1321;48.690;9.022;2022-09-29T08:29:10;11.00;1.00
2623;DHT22;1321;48.690;9.022;2022-09-29T08:31:43;11.10;99.90
2623;DHT22;1321;48.690;9.022;2022-09-29T08:34:11;11.20;13.60
2623;DHT22;1321;48.690;9.022;2022-09-29T08:36:40;11.40;99.90
2623;DHT22;1321;48.690;9.022;2022-09-29T08:39:10;11.60;1.00
2623;DHT22;1321;48.690;9.022;2022-09-29T08:41:49;11.90;1.00
2623;DHT22;1321;48.690;9.022;2022-09-29T08:44:26;11.90;99.90
2623;DHT22;1321;48.690;9.022;2022-09-29T08:47:13;11.90;99.90
2623;DHT22;1321;48.690;9.022;2022-09-29T08:49:45;12.00;99.90
2623;DHT22;1321;48.690;9.022;2022-09-29T08:52:18;12.20;99.90
2623;DHT22;1321;48.690;9.022;2022-09-29T08:54:51;12.40;94.40
2623;DHT22;1321;48.690;9.022;2022-09-29T08:57:21;12.50;1.00
2623;DHT22;1321;48.690;9.022;2022-09-29T08:59:53;12.60;1.00
2623;DHT22;1321;48.690;9.022;2022-09-29T09:05:44;12.40;1.00
2623;DHT22;1321;48.690;9.022;2022-09-29T09:08:33;12.30;1.00
2623;DHT22;1321;48.690;9.022;2022-09-29T09:11:19;12.20;1.00
2623;DHT22;1321;48.690;9.022;2022-09-29T09:13:56;12.20;1.00
2623;DHT22;1321;48.690;9.022;2022-09-29T09:16:38;12.10;1.00
2623;DHT22;1321;48.690;9.022;2022-09-29T09:19:38;12.10;1.00
2623;DHT22;1321;48.690;9.022;2022-09-29T09:22:19;11.80;1.00
2623;DHT22;1321;48.690;9.022;2022-09-29T09:24:55;11.80;26.40
2623;DHT22;1321;48.690;9.022;2022-09-29T09:27:26;11.90;1.00
2623;DHT22;1321;48.690;9.022;2022-09-29T09:30:03;11.90;1.00
2623;DHT22;1321;48.690;9.022;2022-09-29T09:32:36;11.90;1.60
2623;DHT22;1321;48.690;9.022;2022-09-29T09:35:19;12.00;6.00
2623;DHT22;1321;48.690;9.022;2022-09-29T09:37:50;12.00;99.90
2623;DHT22;1321;48.690;9.022;2022-09-29T09:40:24;12.10;1.00
2623;DHT22;1321;48.690;9.022;2022-09-29T09:42:59;12.20;5.00
2623;DHT22;1321;48.690;9.022;2022-09-29T09:45:32;12.20;1.00
2623;DHT22;1321;48.690;9.022;2022-09-29T09:48:04;12.50;1.00
2623;DHT22;1321;48.690;9.022;2022-09-29T09:50:37;12.60;1.00
2623;DHT22;1321;48.690;9.022;2022-09-29T09:53:13;12.90;1.00
2623;DHT22;1321;48.690;9.022;2022-09-29T09:55:42;13.30;1.00
2623;DHT22;1321;48.690;9.022;2022-09-29T09:58:32;13.40;1.00
2623;DHT22;1321;48.690;9.022;2022-09-29T10:01:05;13.40;1.00
2623;DHT22;1321;48.690;9.022;2022-09-29T10:03:35;13.10;1.00
2623;DHT22;1321;48.690;9.022;2022-09-29T10:06:06;13.10;1.00
2623;DHT22;1321;48.690;9.022;2022-09-29T10:08:37;13.00;1.00
2623;DHT22;1321;48.690;9.022;2022-09-29T10:11:20;12.90;1.00
2623;DHT22;1321;48.690;9.022;2022-09-29T10:13:57;12.90;1.00
2623;DHT22;1321;48.690;9.022;2022-09-29T10:16:30;12.90;1.00
2623;DHT22;1321;48.690;9.022;2022-09-29T10:19:04;13.20;99.90
2623;DHT22;1321;48.690;9.022;2022-09-29T10:21:37;13.60;99.90
2623;DHT22;1321;48.690;9.022;2022-09-29T10:24:20;13.80;99.90
2623;DHT22;1321;48.690;9.022;2022-09-29T10:26:51;13.90;99.90
2623;DHT22;1321;48.690;9.022;2022-09-29T10:29:27;14.20;99.90
2623;DHT22;1321;48.690;9.022;2022-09-29T10:31:58;14.10;99.90
2623;DHT22;1321;48.690;9.022;2022-09-29T10:34:28;14.00;99.90
2623;DHT22;1321;48.690;9.022;2022-09-29T10:36:59;13.90;99.90
2623;DHT22;1321;48.690;9.022;2022-09-29T10:39:39;14.00;99.90
2623;DHT22;1321;48.690;9.022;2022-09-29T10:42:17;14.80;99.90
2623;DHT22;1321;48.690;9.022;2022-09-29T10:44:52;14.50;99.90
2623;DHT22;1321;48.690;9.022;2022-09-29T10:47:21;14.20;99.90
2623;DHT22;1321;48.690;9.022;2022-09-29T10:50:11;13.80;99.90
2623;DHT22;1321;48.690;9.022;2022-09-29T10:52:42;13.70;99.90
2623;DHT22;1321;48.690;9.022;2022-09-29T10:55:20;13.50;99.90
2623;DHT22;1321;48.690;9.022;2022-09-29T10:57:49;13.40;99.90
2623;DHT22;1321;48.690;9.022;2022-09-29T11:00:27;13.30;99.90
2623;DHT22;1321;48.690;9.022;2022-09-29T11:03:02;13.10;99.90
2623;DHT22;1321;48.690;9.022;2022-09-29T11:05:32;13.20;99.90
2623;DHT22;1321;48.690;9.022;2022-09-29T11:08:01;13.30;99.90
2623;DHT22;1321;48.690;9.022;2022-09-29T11:10:32;13.40;99.90
2623;DHT22;1321;48.690;9.022;2022-09-29T11:13:31;13.60;99.90
2623;DHT22;1321;48.690;9.022;2022-09-29T11:16:13;13.80;99.90
2623;DHT22;1321;48.690;9.022;2022-09-29T11:18:44;13.80;99.90
2623;DHT22;1321;48.690;9.022;2022-09-29T11:24:18;13.90;99.90
2623;DHT22;1321;48.690;9.022;2022-09-29T11:26:53;14.00;99.90
2623;DHT22;1321;48.690;9.022;2022-09-29T11:29:36;14.20;99.90
2623;DHT22;1321;48.690;9.022;2022-09-29T11:32:16;14.10;99.90
2623;DHT22;1321;48.690;9.022;2022-09-29T11:35:05;14.20;99.90
2623;DHT22;1321;48.690;9.022;2022-09-29T11:37:43;14.30;99.90
2623;DHT22;1321;48.690;9.022;2022-09-29T11:40:21;14.40;99.90
2623;DHT22;1321;48.690;9.022;2022-09-29T11:43:05;14.50;99.90
2623;DHT22;1321;48.690;9.022;2022-09-29T11:45:40;14.40;99.90
2623;DHT22;1321;48.690;9.022;2022-09-29T11:48:35;14.20;99.90
2623;DHT22;1321;48.690;9.022;2022-09-29T11:51:15;14.20;99.90
2623;DHT22;1321;48.690;9.022;2022-09-29T11:54:06;14.20;99.90
2623;DHT22;1321;48.690;9.022;2022-09-29T11:56:47;13.90;99.90
2623;DHT22;1321;48.690;9.022;2022-09-29T11:59:31;13.80;99.90
2623;DHT22;1321;48.690;9.022;2022-09-29T12:05:21;14.00;99.90
2623;DHT22;1321;48.690;9.022;2022-09-29T12:08:00;14.00;99.90
2623;DHT22;1321;48.690;9.022;2022-09-29T12:10:41;14.10;99.90
2623;DHT22;1321;48.690;9.022;2022-09-29T12:13:20;14.10;99.90
2623;DHT22;1321;48.690;9.022;2022-09-29T12:15:52;14.10;99.90
2623;DHT22;1321;48.690;9.022;2022-09-29T12:18:26;14.00;99.90
2623;DHT22;1321;48.690;9.022;2022-09-29T12:20:58;14.10;99.90
2623;DHT22;1321;48.690;9.022;2022-09-29T12:23:28;14.10;99.90
2623;DHT22;1321;48.690;9.022;2022-09-29T12:26:02;14.10;99.90
2623;DHT22;1321;48.690;9.022;2022-09-29T12:28:36;14.20;99.90
2623;DHT22;1321;48.690;9.022;2022-09-29T12:31:11;14.20;99.90
2623;DHT22;1321;48.690;9.022;2022-09-29T12:33:45;14.30;99.90
2623;DHT22;1321;48.690;9.022;2022-09-29T12:36:37;14.40;99.90
2623;DHT22;1321;48.690;9.022;2022-09-29T12:39:26;14.40;99.90
2623;DHT22;1321;48.690;9.022;2022-09-29T12:42:07;14.40;99.90
2623;DHT22;1321;48.690;9.022;2022-09-29T12:44:41;14.30;99.90
2623;DHT22;1321;48.690;9.022;2022-09-29T12:47:17;14.30;99.90
2623;DHT22;1321;48.690;9.022;2022-09-29T12:49:57;14.30;99.90
2623;DHT22;1321;48.690;9.022;2022-09-29T12:52:31;14.20;99.90
2623;DHT22;1321;48.690;9.022;2022-09-29T12:55:06;14.00;99.90
2623;DHT22;1321;48.690;9.022;2022-09-29T12:57:42;14.00;99.90
2623;DHT22;1321;48.690;9.022;2022-09-29T13:00:13;13.90;99.90
2623;DHT22;1321;48.690;9.022;2022-09-29T13:03:09;14.00;99.90
2623;DHT22;1321;48.690;9.022;2022-09-29T13:06:00;14.10;99.90
2623;DHT22;1321;48.690;9.022;2022-09-29T13:08:47;14.10;99.90
2623;DHT22;1321;48.690;9.022;2022-09-29T13:14:29;14.00;99.90
2623;DHT22;1321;48.690;9.022;2022-09-29T13:17:13;14.10;99.90
2623;DHT22;1321;48.690;9.022;2022-09-29T13:23:23;14.10;99.90
2623;DHT22;1321;48.690;9.022;2022-09-29T13:26:16;14.20;99.90
2623;DHT22;1321;48.690;9.022;2022-09-29T13:28:51;14.20;99.90
2623;DHT22;1321;48.690;9.022;2022-09-29T13:31:24;14.10;99.90
2623;DHT22;1321;48.690;9.022;2022-09-29T13:34:00;14.20;99.90
2623;DHT22;1321;48.690;9.022;2022-09-29T13:36:32;14.20;99.90
2623;DHT22;1321;48.690;9.022;2022-09-29T13:39:03;14.20;99.90
2623;DHT22;1321;48.690;9.022;2022-09-29T13:41:35;14.30;99.90
2623;DHT22;1321;48.690;9.022;2022-09-29T13:44:19;14.50;99.90
2623;DHT22;1321;48.690;9.022;2022-09-29T13:46:49;14.50;99.90
2623;DHT22;1321;48.690;9.022;2022-09-29T13:49:26;14.40;99.90
2623;DHT22;1321;48.690;9.022;2022-09-29T13:51:58;14.40;99.90
2623;DHT22;1321;48.690;9.022;2022-09-29T13:54:35;14.40;99.90
2623;DHT22;1321;48.690;9.022;2022-09-29T13:57:21;14.30;99.90
2623;DHT22;1321;48.690;9.022;2022-09-29T14:09:03;14.30;99.90
2623;DHT22;1321;48.690;9.022;2022-09-29T14:11:35;14.30;99.90
2623;DHT22;1321;48.690;9.022;2022-09-29T14:14:14;14.30;99.90
2623;DHT22;1321;48.690;9.022;2022-09-29T14:16:51;14.40;99.90
2623;DHT22;1321;48.690;9.022;2022-09-29T14:19:36;14.30;99.90
2623;DHT22;1321;48.690;9.022;2022-09-29T14:25:31;14.30;99.90
2623;DHT22;1321;48.690;9.022;2022-09-29T14:28:04;14.20;99.90
2623;DHT22;1321;48.690;9.022;2022-09-29T14:30:42;14.10;99.90
2623;DHT22;1321;48.690;9.022;2022-09-29T14:33:13;14.10;99.90
2623;DHT22;1321;48.690;9.022;2022-09-29T14:35:46;14.20;99.90
2623;DHT22;1321;48.690;9.022;2022-09-29T14:38:18;14.10;99.90
2623;DHT22;1321;48.690;9.022;2022-09-29T14:40:54;14.20;99.90
2623;DHT22;1321;48.690;9.022;2022-09-29T14:43:25;14.20;99.90
2623;DHT22;1321;48.690;9.022;2022-09-29T14:46:26;14.20;99.90
2623;DHT22;1321;48.690;9.022;2022-09-29T14:49:40;14.10;99.90
2623;DHT22;1321;48.690;9.022;2022-09-29T14:52:40;14.10;99.90
2623;DHT22;1321;48.690;9.022;2022-09-29T14:55:14;14.10;99.90
2623;DHT22;1321;48.690;9.022;2022-09-29T14:58:02;14.10;99.90
2623;DHT22;1321;48.690;9.022;2022-09-29T15:00:46;14.00;99.90
2623;DHT22;1321;48.690;9.022;2022-09-29T15:03:24;14.00;99.90
2623;DHT22;1321;48.690;9.022;2022-09-29T15:06:06;14.10;99.90
2623;DHT22;1321;48.690;9.022;2022-09-29T15:08:37;14.00;99.90
2623;DHT22;1321;48.690;9.022;2022-09-29T15:11:24;14.00;99.90
2623;DHT22;1321;48.690;9.022;2022-09-29T15:13:53;13.90;99.90
2623;DHT22;1321;48.690;9.022;2022-09-29T15:16:29;13.90;99.90
2623;DHT22;1321;48.690;9.022;2022-09-29T15:19:16;13.80;99.90
2623;DHT22;1321;48.690;9.022;2022-09-29T15:21:55;13.90;99.90
2623;DHT22;1321;48.690;9.022;2022-09-29T15:24:39;13.90;99.90
2623;DHT22;1321;48.690;9.022;2022-09-29T15:27:13;13.90;99.90
2623;DHT22;1321;48.690;9.022;2022-09-29T15:29:45;13.90;99.90
2623;DHT22;1321;48.690;9.022;2022-09-29T15:32:20;13.90;99.90
2623;DHT22;1321;48.690;9.022;2022-09-29T15:34:51;13.90;99.90
2623;DHT22;1321;48.690;9.022;2022-09-29T15:37:22;13.80;99.90
2623;DHT22;1321;48.690;9.022;2022-09-29T15:39:51;13.80;99.90
2623;DHT22;1321;48.690;9.022;2022-09-29T15:42:21;13.80;99.90
2623;DHT22;1321;48.690;9.022;2022-09-29T15:44:58;13.70;99.90
2623;DHT22;1321;48.690;9.022;2022-09-29T15:47:33;13.70;99.90
2623;DHT22;1321;48.690;9.022;2022-09-29T15:50:16;13.70;99.90
2623;DHT22;1321;48.690;9.022;2022-09-29T15:52:45;13.70;99.90
2623;DHT22;1321;48.690;9.022;2022-09-29T15:55:15;13.70;99.90
2623;DHT22;1321;48.690;9.022;2022-09-29T15:57:45;13.60;99.90
2623;DHT22;1321;48.690;9.022;2022-09-29T16:00:50;13.60;99.90
2623;DHT22;1321;48.690;9.022;2022-09-29T16:03:26;13.50;99.90
2623;DHT22;1321;48.690;9.022;2022-09-29T16:06:05;13.50;99.90
2623;DHT22;1321;48.690;9.022;2022-09-29T16:08:37;13.50;99.90
2623;DHT22;1321;48.690;9.022;2022-09-29T16:11:15;13.50;99.90
2623;DHT22;1321;48.690;9.022;2022-09-29T16:13:50;13.50;99.90
2623;DHT22;1321;48.690;9.022;2022-09-29T16:16:27;13.40;99.90
2623;DHT22;1321;48.690;9.022;2022-09-29T16:18:59;13.30;99.90
2623;DHT22;1321;48.690;9.022;2022-09-29T16:21:36;13.30;99.90
2623;DHT22;1321;48.690;9.022;2022-09-29T16:24:10;13.20;99.90
2623;DHT22;1321;48.690;9.022;2022-09-29T16:26:41;13.30;99.90
2623;DHT22;1321;48.690;9.022;2022-09-29T16:29:25;13.30;99.90
2623;DHT22;1321;48.690;9.022;2022-09-29T16:31:54;13.20;1.00
2623;DHT22;1321;48.690;9.022;2022-09-29T16:34:28;13.20;1.00
2623;DHT22;1321;48.690;9.022;2022-09-29T16:37:00;13.10;1.00
2623;DHT22;1321;48.690;9.022;2022-09-29T16:39:30;13.10;1.00
2623;DHT22;1321;48.690;9.022;2022-09-29T16:42:01;13.00;1.00
2623;DHT22;1321;48.690;9.022;2022-09-29T16:44:32;13.00;1.00
2623;DHT22;1321;48.690;9.022;2022-09-29T16:47:03;13.00;1.00
2623;DHT22;1321;48.690;9.022;2022-09-29T16:49:45;12.90;1.00
2623;DHT22;1321;48.690;9.022;2022-09-29T16:52:19;12.90;1.00
2623;DHT22;1321;48.690;9.022;2022-09-29T16:54:49;12.80;1.00
2623;DHT22;1321;48.690;9.022;2022-09-29T16:57:22;12.70;1.00
2623;DHT22;1321;48.690;9.022;2022-09-29T16:59:52;12.70;1.00
2623;DHT22;1321;48.690;9.022;2022-09-29T17:02:22;12.60;1.00
2623;DHT22;1321;48.690;9.022;2022-09-29T17:04:51;12.60;1.00
2623;DHT22;1321;48.690;9.022;2022-09-29T17:07:22;12.50;1.00
2623;DHT22;1321;48.690;9.022;2022-09-29T17:09:53;12.50;5.20
2623;DHT22;1321;48.690;9.022;2022-09-29T17:12:23;12.40;1.00
2623;DHT22;1321;48.690;9.022;2022-09-29T17:14:52;12.40;1.00
2623;DHT22;1321;48.690;9.022;2022-09-29T17:17:23;12.30;44.70
2623;DHT22;1321;48.690;9.022;2022-09-29T17:19:53;12.20;99.90
2623;DHT22;1321;48.690;9.022;2022-09-29T17:22:30;12.10;99.90
2623;DHT22;1321;48.690;9.022;2022-09-29T17:25:00;12.10;99.90